sensor_id;sensor_type;location;lat;lon;timestamp;P1;durP1;ratioP1;P2;durP2;ratioP2
13083;SDS011;6608;48.790;9.198;2022-12-07T00:02:39;106.37;;;53.47;;
13083;SDS011;6608;48.790;9.198;2022-12-07T00:05:07;106.13;;;53.50;;
13083;SDS011;6608;48.790;9.198;2022-12-07T00:07:34;103.27;;;52.57;;
13083;SDS011;6608;48.790;9.198;2022-12-07T00:10:00;101.93;;;52.23;;
13083;SDS011;6608;48.790;9.198;2022-12-07T00:12:27;104.27;;;53.03;;
13083;SDS011;6608;48.790;9.198;2022-12-07T00:14:53;106.53;;;53.03;;
13083;SDS011;6608;48.790;9.198;2022-12-07T00:17:20;104.53;;;52.13;;
13083;SDS011;6608;48.790;9.198;2022-12-07T00:19:46;109.10;;;53.27;;
13083;SDS011;6608;48.790;9.198;2022-12-07T00:22:14;102.90;;;52.60;;
13083;SDS011;6608;48.790;9.198;2022-12-07T00:24:41;103.90;;;53.17;;
13083;SDS011;6608;48.790;9.198;2022-12-07T00:27:07;105.53;;;53.27;;
13083;SDS011;6608;48.790;9.198;2022-12-07T00:29:34;105.10;;;53.70;;
13083;SDS011;6608;48.790;9.198;2022-12-07T00:32:02;104.03;;;53.10;;
13083;SDS011;6608;48.790;9.198;2022-12-07T00:34:29;103.60;;;52.70;;
13083;SDS011;6608;48.790;9.198;2022-12-07T00:36:56;103.57;;;53.40;;
13083;SDS011;6608;48.790;9.198;2022-12-07T00:39:23;103.37;;;52.70;;
13083;SDS011;6608;48.790;9.198;2022-12-07T00:41:50;103.97;;;53.70;;
13083;SDS011;6608;48.790;9.198;2022-12-07T00:44:16;104.20;;;52.67;;
13083;SDS011;6608;48.790;9.198;2022-12-07T00:46:42;105.07;;;54.03;;
13083;SDS011;6608;48.790;9.198;2022-12-07T00:49:10;105.03;;;53.27;;
13083;SDS011;6608;48.790;9.198;2022-12-07T00:51:36;104.10;;;53.73;;
13083;SDS011;6608;48.790;9.198;2022-12-07T00:54:03;107.03;;;53.10;;
13083;SDS011;6608;48.790;9.198;2022-12-07T00:56:31;105.67;;;52.73;;
13083;SDS011;6608;48.790;9.198;2022-12-07T00:58:58;103.47;;;53.07;;
13083;SDS011;6608;48.790;9.198;2022-12-07T01:01:32;104.47;;;53.00;;
13083;SDS011;6608;48.790;9.198;2022-12-07T01:03:59;104.13;;;52.87;;
13083;SDS011;6608;48.790;9.198;2022-12-07T01:06:26;104.83;;;54.07;;
13083;SDS011;6608;48.790;9.198;2022-12-07T01:08:52;105.17;;;53.57;;
13083;SDS011;6608;48.790;9.198;2022-12-07T01:11:19;103.17;;;52.70;;
13083;SDS011;6608;48.790;9.198;2022-12-07T01:13:50;104.87;;;53.40;;
13083;SDS011;6608;48.790;9.198;2022-12-07T01:16:17;106.70;;;53.93;;
13083;SDS011;6608;48.790;9.198;2022-12-07T01:18:45;105.60;;;53.20;;
13083;SDS011;6608;48.790;9.198;2022-12-07T01:21:13;103.67;;;53.83;;
13083;SDS011;6608;48.790;9.198;2022-12-07T01:23:40;103.13;;;52.63;;
13083;SDS011;6608;48.790;9.198;2022-12-07T01:26:07;105.70;;;54.17;;
13083;SDS011;6608;48.790;9.198;2022-12-07T01:28:33;106.20;;;53.80;;
13083;SDS011;6608;48.790;9.198;2022-12-07T01:31:03;104.27;;;53.10;;
13083;SDS011;6608;48.790;9.198;2022-12-07T01:33:31;105.50;;;53.47;;
13083;SDS011;6608;48.790;9.198;2022-12-07T01:36:01;105.30;;;54.30;;
13083;SDS011;6608;48.790;9.198;2022-12-07T01:38:28;103.57;;;52.93;;
13083;SDS011;6608;48.790;9.198;2022-12-07T01:40:54;103.70;;;53.20;;
13083;SDS011;6608;48.790;9.198;2022-12-07T01:43:21;102.87;;;52.93;;
13083;SDS011;6608;48.790;9.198;2022-12-07T01:45:48;105.13;;;53.57;;
13083;SDS011;6608;48.790;9.198;2022-12-07T01:48:17;102.80;;;52.77;;
13083;SDS011;6608;48.790;9.198;2022-12-07T01:50:44;104.40;;;53.40;;
13083;SDS011;6608;48.790;9.198;2022-12-07T01:53:11;103.67;;;53.33;;
13083;SDS011;6608;48.790;9.198;2022-12-07T01:55:41;103.93;;;53.37;;
13083;SDS011;6608;48.790;9.198;2022-12-07T01:58:08;104.27;;;53.77;;
13083;SDS011;6608;48.790;9.198;2022-12-07T02:00:35;104.80;;;53.17;;
13083;SDS011;6608;48.790;9.198;2022-12-07T02:03:03;105.07;;;53.23;;
13083;SDS011;6608;48.790;9.198;2022-12-07T02:05:32;105.63;;;53.20;;
13083;SDS011;6608;48.790;9.198;2022-12-07T02:07:59;106.17;;;53.37;;
13083;SDS011;6608;48.790;9.198;2022-12-07T02:10:26;102.77;;;53.17;;
13083;SDS011;6608;48.790;9.198;2022-12-07T02:12:54;104.50;;;53.43;;
13083;SDS011;6608;48.790;9.198;2022-12-07T02:15:21;103.17;;;52.90;;
13083;SDS011;6608;48.790;9.198;2022-12-07T02:17:50;104.27;;;53.87;;
13083;SDS011;6608;48.790;9.198;2022-12-07T02:20:20;103.13;;;53.17;;
13083;SDS011;6608;48.790;9.198;2022-12-07T02:22:59;103.90;;;53.40;;
13083;SDS011;6608;48.790;9.198;2022-12-07T02:25:30;103.13;;;52.70;;
13083;SDS011;6608;48.790;9.198;2022-12-07T02:28:01;105.47;;;53.53;;
13083;SDS011;6608;48.790;9.198;2022-12-07T02:30:32;109.93;;;56.93;;
13083;SDS011;6608;48.790;9.198;2022-12-07T02:33:02;104.90;;;53.63;;
13083;SDS011;6608;48.790;9.198;2022-12-07T02:35:30;104.70;;;53.07;;
13083;SDS011;6608;48.790;9.198;2022-12-07T02:37:59;101.93;;;52.40;;
13083;SDS011;6608;48.790;9.198;2022-12-07T02:40:29;104.97;;;53.73;;
13083;SDS011;6608;48.790;9.198;2022-12-07T02:42:58;104.53;;;53.10;;
13083;SDS011;6608;48.790;9.198;2022-12-07T02:45:27;105.20;;;52.63;;
13083;SDS011;6608;48.790;9.198;2022-12-07T02:47:57;102.27;;;52.40;;
13083;SDS011;6608;48.790;9.198;2022-12-07T02:50:25;102.37;;;52.43;;
13083;SDS011;6608;48.790;9.198;2022-12-07T02:52:51;103.80;;;53.03;;
13083;SDS011;6608;48.790;9.198;2022-12-07T02:55:18;104.60;;;53.03;;
13083;SDS011;6608;48.790;9.198;2022-12-07T02:57:49;103.63;;;53.17;;
13083;SDS011;6608;48.790;9.198;2022-12-07T03:00:20;104.07;;;53.00;;
13083;SDS011;6608;48.790;9.198;2022-12-07T03:02:49;105.10;;;53.50;;
13083;SDS011;6608;48.790;9.198;2022-12-07T03:05:24;104.43;;;53.67;;
13083;SDS011;6608;48.790;9.198;2022-12-07T03:07:54;102.07;;;52.00;;
13083;SDS011;6608;48.790;9.198;2022-12-07T03:10:27;102.83;;;53.03;;
13083;SDS011;6608;48.790;9.198;2022-12-07T03:12:57;102.67;;;52.83;;
13083;SDS011;6608;48.790;9.198;2022-12-07T03:15:26;103.53;;;53.70;;
13083;SDS011;6608;48.790;9.198;2022-12-07T03:17:53;105.93;;;54.57;;
13083;SDS011;6608;48.790;9.198;2022-12-07T03:20:22;105.33;;;52.63;;
13083;SDS011;6608;48.790;9.198;2022-12-07T03:22:50;102.67;;;52.67;;
13083;SDS011;6608;48.790;9.198;2022-12-07T03:25:17;101.30;;;52.17;;
13083;SDS011;6608;48.790;9.198;2022-12-07T03:27:45;101.70;;;52.73;;
13083;SDS011;6608;48.790;9.198;2022-12-07T03:30:14;102.07;;;52.20;;
13083;SDS011;6608;48.790;9.198;2022-12-07T03:32:42;101.90;;;52.63;;
13083;SDS011;6608;48.790;9.198;2022-12-07T03:35:11;103.77;;;52.77;;
13083;SDS011;6608;48.790;9.198;2022-12-07T03:37:40;103.37;;;53.37;;
13083;SDS011;6608;48.790;9.198;2022-12-07T03:40:14;101.60;;;52.50;;
13083;SDS011;6608;48.790;9.198;2022-12-07T03:42:42;105.43;;;54.13;;
13083;SDS011;6608;48.790;9.198;2022-12-07T03:45:09;105.60;;;53.37;;
13083;SDS011;6608;48.790;9.198;2022-12-07T03:47:37;105.93;;;53.70;;
13083;SDS011;6608;48.790;9.198;2022-12-07T03:50:09;104.10;;;53.43;;
13083;SDS011;6608;48.790;9.198;2022-12-07T03:52:40;104.43;;;53.33;;
13083;SDS011;6608;48.790;9.198;2022-12-07T03:55:08;103.83;;;53.20;;
13083;SDS011;6608;48.790;9.198;2022-12-07T03:57:37;108.20;;;56.33;;
13083;SDS011;6608;48.790;9.198;2022-12-07T04:00:06;103.33;;;52.67;;
13083;SDS011;6608;48.790;9.198;2022-12-07T04:02:35;105.47;;;54.43;;
13083;SDS011;6608;48.790;9.198;2022-12-07T04:05:02;102.27;;;52.53;;
13083;SDS011;6608;48.790;9.198;2022-12-07T04:07:28;103.00;;;52.40;;
13083;SDS011;6608;48.790;9.198;2022-12-07T04:09:56;103.00;;;52.60;;
13083;SDS011;6608;48.790;9.198;2022-12-07T04:12:23;102.13;;;52.40;;
13083;SDS011;6608;48.790;9.198;2022-12-07T04:14:49;104.67;;;52.90;;
13083;SDS011;6608;48.790;9.198;2022-12-07T04:17:16;103.20;;;52.80;;
13083;SDS011;6608;48.790;9.198;2022-12-07T04:19:42;103.13;;;52.97;;
13083;SDS011;6608;48.790;9.198;2022-12-07T04:22:08;104.20;;;52.30;;
13083;SDS011;6608;48.790;9.198;2022-12-07T04:24:35;102.80;;;52.90;;
13083;SDS011;6608;48.790;9.198;2022-12-07T04:27:03;102.93;;;52.90;;
13083;SDS011;6608;48.790;9.198;2022-12-07T04:29:29;102.93;;;52.60;;
13083;SDS011;6608;48.790;9.198;2022-12-07T04:31:55;105.80;;;53.43;;
13083;SDS011;6608;48.790;9.198;2022-12-07T04:34:22;103.20;;;53.17;;
13083;SDS011;6608;48.790;9.198;2022-12-07T04:36:48;102.10;;;52.60;;
13083;SDS011;6608;48.790;9.198;2022-12-07T04:39:17;103.57;;;52.07;;
13083;SDS011;6608;48.790;9.198;2022-12-07T04:41:44;109.00;;;56.40;;
13083;SDS011;6608;48.790;9.198;2022-12-07T04:44:12;102.57;;;52.53;;
13083;SDS011;6608;48.790;9.198;2022-12-07T04:46:39;101.03;;;52.40;;
13083;SDS011;6608;48.790;9.198;2022-12-07T04:49:06;103.17;;;52.70;;
13083;SDS011;6608;48.790;9.198;2022-12-07T04:51:32;100.10;;;51.67;;
13083;SDS011;6608;48.790;9.198;2022-12-07T04:53:59;102.77;;;52.93;;
13083;SDS011;6608;48.790;9.198;2022-12-07T04:56:25;103.87;;;52.83;;
13083;SDS011;6608;48.790;9.198;2022-12-07T04:58:52;103.53;;;53.17;;
13083;SDS011;6608;48.790;9.198;2022-12-07T05:01:21;102.97;;;52.63;;
13083;SDS011;6608;48.790;9.198;2022-12-07T05:03:47;102.53;;;51.80;;
13083;SDS011;6608;48.790;9.198;2022-12-07T05:06:14;103.43;;;52.23;;
13083;SDS011;6608;48.790;9.198;2022-12-07T05:08:40;102.07;;;52.00;;
13083;SDS011;6608;48.790;9.198;2022-12-07T05:11:08;102.67;;;52.23;;
13083;SDS011;6608;48.790;9.198;2022-12-07T05:13:35;102.67;;;52.43;;
13083;SDS011;6608;48.790;9.198;2022-12-07T05:16:01;102.37;;;52.20;;
13083;SDS011;6608;48.790;9.198;2022-12-07T05:18:29;103.50;;;51.97;;
13083;SDS011;6608;48.790;9.198;2022-12-07T05:20:55;100.33;;;51.80;;
13083;SDS011;6608;48.790;9.198;2022-12-07T05:23:22;103.30;;;53.17;;
13083;SDS011;6608;48.790;9.198;2022-12-07T05:25:48;106.80;;;52.83;;
13083;SDS011;6608;48.790;9.198;2022-12-07T05:28:15;104.90;;;52.83;;
13083;SDS011;6608;48.790;9.198;2022-12-07T05:30:41;102.30;;;52.03;;
13083;SDS011;6608;48.790;9.198;2022-12-07T05:33:07;102.43;;;52.83;;
13083;SDS011;6608;48.790;9.198;2022-12-07T05:35:35;101.63;;;52.17;;
13083;SDS011;6608;48.790;9.198;2022-12-07T05:38:02;103.80;;;53.63;;
13083;SDS011;6608;48.790;9.198;2022-12-07T05:40:29;100.93;;;51.90;;
13083;SDS011;6608;48.790;9.198;2022-12-07T05:42:55;99.87;;;51.53;;
13083;SDS011;6608;48.790;9.198;2022-12-07T05:45:22;101.80;;;52.53;;
13083;SDS011;6608;48.790;9.198;2022-12-07T05:47:48;101.27;;;52.00;;
13083;SDS011;6608;48.790;9.198;2022-12-07T05:50:14;97.87;;;51.00;;
13083;SDS011;6608;48.790;9.198;2022-12-07T05:52:42;101.30;;;52.37;;
13083;SDS011;6608;48.790;9.198;2022-12-07T05:55:09;102.07;;;52.97;;
13083;SDS011;6608;48.790;9.198;2022-12-07T05:57:35;100.23;;;51.90;;
13083;SDS011;6608;48.790;9.198;2022-12-07T06:00:02;99.90;;;52.40;;
13083;SDS011;6608;48.790;9.198;2022-12-07T06:02:27;103.03;;;52.20;;
13083;SDS011;6608;48.790;9.198;2022-12-07T06:04:54;101.23;;;52.80;;
13083;SDS011;6608;48.790;9.198;2022-12-07T06:07:20;99.90;;;52.13;;
13083;SDS011;6608;48.790;9.198;2022-12-07T06:09:48;102.20;;;53.17;;
13083;SDS011;6608;48.790;9.198;2022-12-07T06:12:14;103.27;;;52.50;;
13083;SDS011;6608;48.790;9.198;2022-12-07T06:14:58;104.87;;;52.00;;
13083;SDS011;6608;48.790;9.198;2022-12-07T06:17:25;99.87;;;51.20;;
13083;SDS011;6608;48.790;9.198;2022-12-07T06:19:51;102.73;;;52.77;;
13083;SDS011;6608;48.790;9.198;2022-12-07T06:22:17;102.37;;;52.23;;
13083;SDS011;6608;48.790;9.198;2022-12-07T06:24:44;102.67;;;53.73;;
13083;SDS011;6608;48.790;9.198;2022-12-07T06:27:12;101.83;;;52.70;;
13083;SDS011;6608;48.790;9.198;2022-12-07T06:29:38;102.80;;;53.43;;
13083;SDS011;6608;48.790;9.198;2022-12-07T06:32:05;104.27;;;53.73;;
13083;SDS011;6608;48.790;9.198;2022-12-07T06:34:31;101.17;;;52.53;;
13083;SDS011;6608;48.790;9.198;2022-12-07T06:36:57;100.47;;;52.27;;
13083;SDS011;6608;48.790;9.198;2022-12-07T06:39:24;103.37;;;53.23;;
13083;SDS011;6608;48.790;9.198;2022-12-07T06:41:51;101.83;;;51.90;;
13083;SDS011;6608;48.790;9.198;2022-12-07T06:44:20;100.90;;;52.53;;
13083;SDS011;6608;48.790;9.198;2022-12-07T06:46:47;100.60;;;51.83;;
13083;SDS011;6608;48.790;9.198;2022-12-07T06:49:14;102.43;;;52.50;;
13083;SDS011;6608;48.790;9.198;2022-12-07T06:51:40;104.97;;;52.97;;
13083;SDS011;6608;48.790;9.198;2022-12-07T06:54:07;103.17;;;52.87;;
13083;SDS011;6608;48.790;9.198;2022-12-07T06:56:33;101.37;;;51.70;;
13083;SDS011;6608;48.790;9.198;2022-12-07T06:59:00;102.50;;;52.13;;
13083;SDS011;6608;48.790;9.198;2022-12-07T07:01:27;101.10;;;52.27;;
13083;SDS011;6608;48.790;9.198;2022-12-07T07:03:54;104.80;;;52.90;;
13083;SDS011;6608;48.790;9.198;2022-12-07T07:06:20;101.40;;;51.90;;
13083;SDS011;6608;48.790;9.198;2022-12-07T07:08:46;109.23;;;52.87;;
13083;SDS011;6608;48.790;9.198;2022-12-07T07:11:13;102.40;;;52.90;;
13083;SDS011;6608;48.790;9.198;2022-12-07T07:13:39;100.40;;;51.93;;
13083;SDS011;6608;48.790;9.198;2022-12-07T07:16:06;102.73;;;53.33;;
13083;SDS011;6608;48.790;9.198;2022-12-07T07:18:34;101.07;;;52.57;;
13083;SDS011;6608;48.790;9.198;2022-12-07T07:21:00;99.57;;;51.17;;
13083;SDS011;6608;48.790;9.198;2022-12-07T07:23:27;101.70;;;52.07;;
13083;SDS011;6608;48.790;9.198;2022-12-07T07:25:53;100.90;;;51.80;;
13083;SDS011;6608;48.790;9.198;2022-12-07T07:28:20;101.80;;;52.30;;
13083;SDS011;6608;48.790;9.198;2022-12-07T07:30:46;100.93;;;52.03;;
13083;SDS011;6608;48.790;9.198;2022-12-07T07:33:13;104.47;;;54.10;;
13083;SDS011;6608;48.790;9.198;2022-12-07T07:35:40;101.33;;;51.93;;
13083;SDS011;6608;48.790;9.198;2022-12-07T07:38:07;101.23;;;51.73;;
13083;SDS011;6608;48.790;9.198;2022-12-07T07:40:34;99.73;;;51.33;;
13083;SDS011;6608;48.790;9.198;2022-12-07T07:43:01;102.13;;;52.43;;
13083;SDS011;6608;48.790;9.198;2022-12-07T07:45:27;102.97;;;53.10;;
13083;SDS011;6608;48.790;9.198;2022-12-07T07:47:53;102.53;;;52.40;;
13083;SDS011;6608;48.790;9.198;2022-12-07T07:50:20;114.57;;;57.30;;
13083;SDS011;6608;48.790;9.198;2022-12-07T07:52:48;105.43;;;52.20;;
13083;SDS011;6608;48.790;9.198;2022-12-07T07:55:15;104.33;;;51.70;;
13083;SDS011;6608;48.790;9.198;2022-12-07T07:57:41;105.03;;;53.67;;
13083;SDS011;6608;48.790;9.198;2022-12-07T08:00:09;105.43;;;52.23;;
13083;SDS011;6608;48.790;9.198;2022-12-07T08:02:36;101.93;;;51.93;;
13083;SDS011;6608;48.790;9.198;2022-12-07T08:05:02;103.67;;;52.83;;
13083;SDS011;6608;48.790;9.198;2022-12-07T08:07:29;109.77;;;52.80;;
13083;SDS011;6608;48.790;9.198;2022-12-07T08:09:57;126.00;;;59.03;;
13083;SDS011;6608;48.790;9.198;2022-12-07T08:12:23;101.23;;;51.37;;
13083;SDS011;6608;48.790;9.198;2022-12-07T08:14:51;101.97;;;52.03;;
13083;SDS011;6608;48.790;9.198;2022-12-07T08:23:18;104.10;;;51.43;;
13083;SDS011;6608;48.790;9.198;2022-12-07T08:25:46;103.90;;;51.13;;
13083;SDS011;6608;48.790;9.198;2022-12-07T08:28:13;106.90;;;54.30;;
13083;SDS011;6608;48.790;9.198;2022-12-07T08:30:39;107.50;;;54.07;;
13083;SDS011;6608;48.790;9.198;2022-12-07T08:33:05;106.40;;;52.60;;
13083;SDS011;6608;48.790;9.198;2022-12-07T08:35:32;105.13;;;52.63;;
13083;SDS011;6608;48.790;9.198;2022-12-07T08:37:59;107.03;;;53.57;;
13083;SDS011;6608;48.790;9.198;2022-12-07T08:40:27;106.93;;;52.70;;
13083;SDS011;6608;48.790;9.198;2022-12-07T08:42:55;105.23;;;52.43;;
13083;SDS011;6608;48.790;9.198;2022-12-07T08:45:21;105.33;;;52.47;;
13083;SDS011;6608;48.790;9.198;2022-12-07T08:47:48;107.00;;;53.07;;
13083;SDS011;6608;48.790;9.198;2022-12-07T08:50:16;110.63;;;55.37;;
13083;SDS011;6608;48.790;9.198;2022-12-07T08:52:42;108.50;;;53.60;;
13083;SDS011;6608;48.790;9.198;2022-12-07T08:55:09;107.43;;;53.07;;
13083;SDS011;6608;48.790;9.198;2022-12-07T08:57:36;112.30;;;52.47;;
13083;SDS011;6608;48.790;9.198;2022-12-07T09:00:05;109.53;;;53.50;;
13083;SDS011;6608;48.790;9.198;2022-12-07T09:02:32;114.27;;;57.17;;
13083;SDS011;6608;48.790;9.198;2022-12-07T09:04:58;112.43;;;54.17;;
13083;SDS011;6608;48.790;9.198;2022-12-07T09:07:25;109.57;;;54.27;;
13083;SDS011;6608;48.790;9.198;2022-12-07T09:09:51;108.27;;;53.30;;
13083;SDS011;6608;48.790;9.198;2022-12-07T09:12:25;109.97;;;53.40;;
13083;SDS011;6608;48.790;9.198;2022-12-07T09:14:51;112.27;;;54.87;;
13083;SDS011;6608;48.790;9.198;2022-12-07T09:17:19;110.50;;;54.40;;
13083;SDS011;6608;48.790;9.198;2022-12-07T09:19:45;116.70;;;56.23;;
13083;SDS011;6608;48.790;9.198;2022-12-07T09:22:12;111.60;;;54.97;;
13083;SDS011;6608;48.790;9.198;2022-12-07T09:24:38;111.27;;;54.73;;
13083;SDS011;6608;48.790;9.198;2022-12-07T09:27:04;113.17;;;53.13;;
13083;SDS011;6608;48.790;9.198;2022-12-07T09:29:31;114.20;;;54.20;;
13083;SDS011;6608;48.790;9.198;2022-12-07T09:31:57;110.40;;;53.47;;
13083;SDS011;6608;48.790;9.198;2022-12-07T09:34:25;109.97;;;53.47;;
13083;SDS011;6608;48.790;9.198;2022-12-07T09:36:52;113.83;;;52.87;;
13083;SDS011;6608;48.790;9.198;2022-12-07T09:39:18;114.93;;;54.60;;
13083;SDS011;6608;48.790;9.198;2022-12-07T09:41:45;114.33;;;54.00;;
13083;SDS011;6608;48.790;9.198;2022-12-07T09:44:12;112.80;;;53.87;;
13083;SDS011;6608;48.790;9.198;2022-12-07T09:46:40;112.70;;;53.23;;
13083;SDS011;6608;48.790;9.198;2022-12-07T09:49:09;113.13;;;53.93;;
13083;SDS011;6608;48.790;9.198;2022-12-07T09:51:39;110.60;;;52.70;;
13083;SDS011;6608;48.790;9.198;2022-12-07T09:54:05;119.03;;;52.97;;
13083;SDS011;6608;48.790;9.198;2022-12-07T09:56:32;116.13;;;53.57;;
13083;SDS011;6608;48.790;9.198;2022-12-07T09:58:59;114.83;;;54.23;;
13083;SDS011;6608;48.790;9.198;2022-12-07T10:01:27;126.83;;;60.13;;
13083;SDS011;6608;48.790;9.198;2022-12-07T10:03:55;118.53;;;56.90;;
13083;SDS011;6608;48.790;9.198;2022-12-07T10:06:24;114.77;;;54.67;;
13083;SDS011;6608;48.790;9.198;2022-12-07T10:08:52;128.57;;;60.07;;
13083;SDS011;6608;48.790;9.198;2022-12-07T10:11:19;113.17;;;53.07;;
13083;SDS011;6608;48.790;9.198;2022-12-07T10:13:46;113.07;;;53.47;;
13083;SDS011;6608;48.790;9.198;2022-12-07T10:16:27;125.30;;;58.53;;
13083;SDS011;6608;48.790;9.198;2022-12-07T10:18:57;118.17;;;55.53;;
13083;SDS011;6608;48.790;9.198;2022-12-07T10:21:42;112.33;;;54.47;;
13083;SDS011;6608;48.790;9.198;2022-12-07T10:24:26;112.47;;;54.63;;
13083;SDS011;6608;48.790;9.198;2022-12-07T10:26:53;110.43;;;52.53;;
13083;SDS011;6608;48.790;9.198;2022-12-07T10:29:20;112.13;;;54.43;;
13083;SDS011;6608;48.790;9.198;2022-12-07T10:31:55;110.40;;;52.40;;
13083;SDS011;6608;48.790;9.198;2022-12-07T10:34:23;111.67;;;54.20;;
13083;SDS011;6608;48.790;9.198;2022-12-07T10:36:50;117.80;;;52.63;;
13083;SDS011;6608;48.790;9.198;2022-12-07T10:39:17;111.30;;;53.07;;
13083;SDS011;6608;48.790;9.198;2022-12-07T10:41:55;112.07;;;52.80;;
13083;SDS011;6608;48.790;9.198;2022-12-07T10:44:23;112.90;;;52.83;;
13083;SDS011;6608;48.790;9.198;2022-12-07T10:52:18;111.50;;;52.57;;
13083;SDS011;6608;48.790;9.198;2022-12-07T10:54:48;111.17;;;53.17;;
13083;SDS011;6608;48.790;9.198;2022-12-07T10:57:26;110.13;;;52.80;;
13083;SDS011;6608;48.790;9.198;2022-12-07T11:00:02;111.97;;;52.90;;
13083;SDS011;6608;48.790;9.198;2022-12-07T11:02:35;110.90;;;53.50;;
13083;SDS011;6608;48.790;9.198;2022-12-07T11:05:06;110.60;;;53.30;;
13083;SDS011;6608;48.790;9.198;2022-12-07T11:07:39;110.23;;;53.30;;
13083;SDS011;6608;48.790;9.198;2022-12-07T11:10:08;110.17;;;53.87;;
13083;SDS011;6608;48.790;9.198;2022-12-07T11:12:43;109.60;;;53.07;;
13083;SDS011;6608;48.790;9.198;2022-12-07T11:15:12;108.57;;;53.20;;
13083;SDS011;6608;48.790;9.198;2022-12-07T11:17:42;113.27;;;54.90;;
13083;SDS011;6608;48.790;9.198;2022-12-07T11:20:14;112.80;;;53.10;;
13083;SDS011;6608;48.790;9.198;2022-12-07T11:22:46;108.60;;;52.77;;
13083;SDS011;6608;48.790;9.198;2022-12-07T11:25:15;109.40;;;53.13;;
13083;SDS011;6608;48.790;9.198;2022-12-07T11:27:46;119.07;;;58.57;;
13083;SDS011;6608;48.790;9.198;2022-12-07T11:30:14;110.13;;;53.57;;
13083;SDS011;6608;48.790;9.198;2022-12-07T11:32:51;108.67;;;52.90;;
13083;SDS011;6608;48.790;9.198;2022-12-07T11:35:22;112.27;;;53.13;;
13083;SDS011;6608;48.790;9.198;2022-12-07T11:37:51;112.33;;;51.77;;
13083;SDS011;6608;48.790;9.198;2022-12-07T11:40:24;108.90;;;52.47;;
13083;SDS011;6608;48.790;9.198;2022-12-07T11:42:55;107.63;;;52.50;;
13083;SDS011;6608;48.790;9.198;2022-12-07T11:45:25;117.47;;;57.77;;
13083;SDS011;6608;48.790;9.198;2022-12-07T11:47:53;109.80;;;53.00;;
13083;SDS011;6608;48.790;9.198;2022-12-07T11:50:25;109.87;;;52.87;;
13083;SDS011;6608;48.790;9.198;2022-12-07T11:52:53;107.73;;;52.33;;
13083;SDS011;6608;48.790;9.198;2022-12-07T11:55:23;109.27;;;53.50;;
13083;SDS011;6608;48.790;9.198;2022-12-07T11:57:51;109.13;;;53.23;;
13083;SDS011;6608;48.790;9.198;2022-12-07T12:00:20;109.07;;;53.57;;
13083;SDS011;6608;48.790;9.198;2022-12-07T12:02:49;109.13;;;52.23;;
13083;SDS011;6608;48.790;9.198;2022-12-07T12:05:17;110.87;;;55.23;;
13083;SDS011;6608;48.790;9.198;2022-12-07T12:07:46;106.70;;;52.70;;
13083;SDS011;6608;48.790;9.198;2022-12-07T12:10:16;108.50;;;53.90;;
13083;SDS011;6608;48.790;9.198;2022-12-07T12:13:06;106.13;;;52.23;;
13083;SDS011;6608;48.790;9.198;2022-12-07T12:15:41;108.93;;;53.40;;
13083;SDS011;6608;48.790;9.198;2022-12-07T12:18:12;108.53;;;53.67;;
13083;SDS011;6608;48.790;9.198;2022-12-07T12:20:43;108.43;;;53.83;;
13083;SDS011;6608;48.790;9.198;2022-12-07T12:23:12;108.50;;;52.03;;
13083;SDS011;6608;48.790;9.198;2022-12-07T12:25:40;107.27;;;52.60;;
13083;SDS011;6608;48.790;9.198;2022-12-07T12:28:16;107.53;;;53.20;;
13083;SDS011;6608;48.790;9.198;2022-12-07T12:30:46;107.10;;;53.47;;
13083;SDS011;6608;48.790;9.198;2022-12-07T12:33:29;106.50;;;52.30;;
13083;SDS011;6608;48.790;9.198;2022-12-07T12:38:48;108.73;;;53.27;;
13083;SDS011;6608;48.790;9.198;2022-12-07T12:43:56;108.93;;;53.13;;
13083;SDS011;6608;48.790;9.198;2022-12-07T12:54:59;112.00;;;53.10;;
13083;SDS011;6608;48.790;9.198;2022-12-07T12:57:27;109.87;;;52.93;;
13083;SDS011;6608;48.790;9.198;2022-12-07T12:59:56;107.10;;;52.73;;
13083;SDS011;6608;48.790;9.198;2022-12-07T13:02:23;108.40;;;52.50;;
13083;SDS011;6608;48.790;9.198;2022-12-07T13:04:51;106.97;;;53.00;;
13083;SDS011;6608;48.790;9.198;2022-12-07T13:10:08;108.93;;;53.37;;
13083;SDS011;6608;48.790;9.198;2022-12-07T13:12:54;108.30;;;53.30;;
13083;SDS011;6608;48.790;9.198;2022-12-07T13:15:31;107.40;;;52.50;;
13083;SDS011;6608;48.790;9.198;2022-12-07T13:17:58;110.50;;;52.90;;
13083;SDS011;6608;48.790;9.198;2022-12-07T13:20:42;111.17;;;53.97;;
13083;SDS011;6608;48.790;9.198;2022-12-07T13:23:09;106.87;;;52.33;;
13083;SDS011;6608;48.790;9.198;2022-12-07T13:25:40;107.10;;;51.90;;
13083;SDS011;6608;48.790;9.198;2022-12-07T13:28:11;110.60;;;53.17;;
13083;SDS011;6608;48.790;9.198;2022-12-07T13:30:42;106.50;;;52.63;;
13083;SDS011;6608;48.790;9.198;2022-12-07T13:33:10;107.37;;;52.50;;
13083;SDS011;6608;48.790;9.198;2022-12-07T13:35:37;108.10;;;53.17;;
13083;SDS011;6608;48.790;9.198;2022-12-07T13:38:04;108.83;;;53.37;;
13083;SDS011;6608;48.790;9.198;2022-12-07T13:40:32;109.40;;;53.73;;
13083;SDS011;6608;48.790;9.198;2022-12-07T13:43:00;108.37;;;53.50;;
13083;SDS011;6608;48.790;9.198;2022-12-07T13:45:27;107.00;;;52.90;;
13083;SDS011;6608;48.790;9.198;2022-12-07T13:48:10;107.67;;;52.13;;
13083;SDS011;6608;48.790;9.198;2022-12-07T13:50:40;109.63;;;53.67;;
13083;SDS011;6608;48.790;9.198;2022-12-07T13:53:10;109.17;;;53.63;;
13083;SDS011;6608;48.790;9.198;2022-12-07T13:55:37;106.63;;;52.40;;
13083;SDS011;6608;48.790;9.198;2022-12-07T13:58:11;105.87;;;52.30;;
13083;SDS011;6608;48.790;9.198;2022-12-07T14:00:39;111.10;;;52.97;;
13083;SDS011;6608;48.790;9.198;2022-12-07T14:03:20;108.07;;;53.00;;
13083;SDS011;6608;48.790;9.198;2022-12-07T14:06:03;111.37;;;53.43;;
13083;SDS011;6608;48.790;9.198;2022-12-07T14:08:30;144.13;;;75.90;;
13083;SDS011;6608;48.790;9.198;2022-12-07T14:10:56;106.10;;;52.40;;
13083;SDS011;6608;48.790;9.198;2022-12-07T14:13:27;110.73;;;52.93;;
13083;SDS011;6608;48.790;9.198;2022-12-07T14:15:54;108.83;;;53.93;;
13083;SDS011;6608;48.790;9.198;2022-12-07T14:18:25;107.17;;;52.77;;
13083;SDS011;6608;48.790;9.198;2022-12-07T14:21:01;105.83;;;52.87;;
13083;SDS011;6608;48.790;9.198;2022-12-07T14:23:28;109.13;;;53.20;;
13083;SDS011;6608;48.790;9.198;2022-12-07T14:26:03;107.23;;;53.20;;
13083;SDS011;6608;48.790;9.198;2022-12-07T14:28:32;105.97;;;52.67;;
13083;SDS011;6608;48.790;9.198;2022-12-07T14:30:59;111.80;;;53.90;;
13083;SDS011;6608;48.790;9.198;2022-12-07T14:33:26;109.00;;;54.40;;
13083;SDS011;6608;48.790;9.198;2022-12-07T14:35:53;105.90;;;52.50;;
13083;SDS011;6608;48.790;9.198;2022-12-07T14:38:22;107.73;;;53.90;;
13083;SDS011;6608;48.790;9.198;2022-12-07T14:40:49;106.40;;;53.30;;
13083;SDS011;6608;48.790;9.198;2022-12-07T14:43:16;105.97;;;52.83;;
13083;SDS011;6608;48.790;9.198;2022-12-07T14:45:44;106.30;;;53.00;;
13083;SDS011;6608;48.790;9.198;2022-12-07T14:48:11;112.83;;;57.23;;
13083;SDS011;6608;48.790;9.198;2022-12-07T14:50:39;108.30;;;53.37;;
13083;SDS011;6608;48.790;9.198;2022-12-07T14:53:09;111.70;;;53.87;;
13083;SDS011;6608;48.790;9.198;2022-12-07T14:55:36;111.97;;;55.93;;
13083;SDS011;6608;48.790;9.198;2022-12-07T14:58:03;155.60;;;79.93;;